Time;durP1;ratioP1;P1;durP2;ratioP2;P2;SDS_P1;SDS_P2;PMS_P1;PMS_P2;Temp;Humidity;BMP_temperature;BMP_pressure;BME280_temperature;BME280_humidity;BME280_pressure;Samples;Min_cycle;Max_cycle;Signal;HPM_P1;HPM_P2
2021/09/29 00:01:29;;;;;;;9.60;4.70;;;;;;;8.97;82.22;100877.10;116566;1200;137830;-56
2021/09/29 00:04:07;;;;;;;15.40;5.00;;;;;;;8.94;82.12;100878.68;116716;1200;22379;-56
2021/09/29 00:06:35;;;;;;;6.90;4.60;;;;;;;8.92;82.15;100880.95;116536;1200;137524;-56
2021/09/29 00:09:03;;;;;;;6.50;4.80;;;;;;;8.92;82.20;100877.73;116602;1200;23054;-56
2021/09/29 00:11:31;;;;;;;9.70;4.80;;;;;;;8.92;82.09;100878.11;116660;1200;23007;-56
2021/09/29 00:13:59;;;;;;;8.20;4.50;;;;;;;8.90;82.11;100877.77;116544;1200;138980;-56
2021/09/29 00:16:47;;;;;;;;;;;;;;;8.90;82.22;100879.58;116654;1200;22349;-56
2021/09/29 00:19:16;;;;;;;10.90;4.70;;;;;;;8.89;82.14;100881.20;116480;1200;124195;-56
2021/09/29 00:21:44;;;;;;;11.90;4.80;;;;;;;8.87;82.09;100882.30;116674;1200;22817;-56
2021/09/29 00:24:13;;;;;;;10.80;4.40;;;;;;;8.86;82.09;100884.92;116497;1198;138682;-56
2021/09/29 00:26:41;;;;;;;8.10;4.90;;;;;;;8.84;82.14;100882.71;116604;1193;23126;-56
2021/09/29 00:29:09;;;;;;;7.60;4.70;;;;;;;8.82;82.11;100886.65;116700;1200;22315;-56
2021/09/29 00:31:39;;;;;;;10.00;5.50;;;;;;;8.79;82.19;100887.00;116537;1200;139776;-56
2021/09/29 00:36:54;;;;;;;8.90;6.20;;;;;;;8.74;82.18;100881.63;116587;1200;137344;-56
2021/09/29 00:39:22;;;;;;;8.20;6.50;;;;;;;8.70;82.17;100879.23;116738;1200;23154;-56
2021/09/29 00:41:52;;;;;;;11.40;6.20;;;;;;;8.66;82.15;100880.21;116597;1200;139400;-56
2021/09/29 00:44:19;;;;;;;9.30;5.10;;;;;;;8.64;82.22;100884.12;116718;1199;23380;-55
2021/09/29 00:46:48;;;;;;;5.30;4.20;;;;;;;8.60;82.27;100887.88;113844;1193;22409;-55
2021/09/29 00:49:16;;;;;;;10.20;3.80;;;;;;;8.57;82.28;100886.58;116620;1200;137619;-56
2021/09/29 00:51:44;;;;;;;10.90;4.00;;;;;;;8.52;82.45;100881.23;116754;1200;22374;-56
2021/09/29 00:54:12;;;;;;;8.10;4.10;;;;;;;8.48;82.45;100885.89;116658;1200;137763;-56
2021/09/29 00:56:40;;;;;;;6.70;4.20;;;;;;;8.43;82.49;100886.98;116777;1200;22237;-56
2021/09/29 00:59:09;;;;;;;6.90;3.60;;;;;;;8.39;82.57;100886.73;116732;1200;22340;-56
2021/09/29 01:01:37;;;;;;;5.20;4.00;;;;;;;8.33;82.61;100892.71;116568;1200;138501;-56
2021/09/29 01:04:14;;;;;;;6.50;4.10;;;;;;;8.29;82.68;100893.77;116686;1200;22954;-56
2021/09/29 01:06:49;;;;;;;8.90;4.30;;;;;;;8.26;82.80;100896.72;116490;1200;137313;-56
2021/09/29 01:09:21;;;;;;;6.70;3.70;;;;;;;8.24;83.00;100901.14;116629;1200;23084;-56
2021/09/29 01:11:56;;;;;;;6.00;3.70;;;;;;;8.20;83.17;100902.46;116534;1200;137697;-57
2021/09/29 01:14:27;;;;;;;4.50;3.90;;;;;;;8.15;83.48;100903.25;116725;1200;22370;-55
2021/09/29 01:17:17;;;;;;;7.30;3.80;;;;;;;8.11;83.55;100900.39;116751;1200;22237;-55
2021/09/29 01:20:06;;;;;;;6.40;3.60;;;;;;;8.09;83.74;100904.77;116523;1200;137743;-55
2021/09/29 01:22:41;;;;;;;7.00;4.10;;;;;;;8.08;83.84;100904.94;116713;1186;23343;-55
2021/09/29 01:25:28;;;;;;;5.10;3.60;;;;;;;8.04;83.93;100914.52;116630;1199;137606;-55
2021/09/29 01:27:57;;;;;;;7.00;3.50;;;;;;;8.00;84.06;100915.30;116693;1200;22310;-55
2021/09/29 01:30:26;;;;;;;4.90;3.70;;;;;;;7.96;84.18;100918.80;116714;1199;137892;-55
2021/09/29 01:32:54;;;;;;;10.10;4.30;;;;;;;7.94;84.24;100918.84;116845;1199;22377;-56
2021/09/29 01:35:22;;;;;;;6.00;3.70;;;;;;;7.93;84.25;100920.23;116895;1193;22905;-56
2021/09/29 01:37:54;;;;;;;8.70;3.60;;;;;;;7.91;84.20;100917.77;116808;1198;138614;-55
2021/09/29 01:40:22;;;;;;;9.10;4.10;;;;;;;7.91;84.21;100917.64;116937;1199;22355;-56
2021/09/29 01:42:50;;;;;;;7.30;4.10;;;;;;;7.91;84.19;100919.23;116794;1199;138203;-56
2021/09/29 01:45:18;;;;;;;8.40;4.50;;;;;;;7.92;84.23;100923.27;116906;1199;22301;-56
2021/09/29 01:47:48;;;;;;;7.10;4.20;;;;;;;7.91;84.01;100917.68;116923;1198;22385;-56
2021/09/29 01:50:22;;;;;;;5.70;3.40;;;;;;;7.89;84.01;100919.23;116658;1199;138417;-56
2021/09/29 01:52:50;;;;;;;5.50;3.90;;;;;;;7.87;84.07;100918.88;116763;1199;22342;-55
2021/09/29 01:55:18;;;;;;;6.10;3.50;;;;;;;7.87;84.02;100920.20;116654;1198;138595;-56
2021/09/29 01:57:50;;;;;;;6.30;4.10;;;;;;;7.85;83.91;100919.20;116807;1199;22262;-56
2021/09/29 02:00:19;;;;;;;9.00;3.90;;;;;;;7.84;83.97;100920.99;116633;1199;138141;-56
2021/09/29 02:02:47;;;;;;;10.10;4.40;;;;;;;7.79;83.86;100924.23;116917;1198;23149;-56
2021/09/29 02:05:24;;;;;;;8.60;4.40;;;;;;;7.72;83.89;100921.43;116806;1198;22333;-56
2021/09/29 02:07:53;;;;;;;10.00;4.20;;;;;;;7.68;83.84;100926.21;116526;1200;137775;-56
2021/09/29 02:10:21;;;;;;;11.00;5.10;;;;;;;7.63;84.03;100925.77;116649;1193;23931;-56
2021/09/29 02:12:51;;;;;;;14.50;4.90;;;;;;;7.61;84.09;100929.42;116800;1198;137463;-56
2021/09/29 02:15:19;;;;;;;12.60;5.10;;;;;;;7.59;84.08;100930.83;116607;1199;22473;-56
2021/09/29 02:17:48;;;;;;;8.80;4.30;;;;;;;7.58;84.17;100934.08;112599;1199;25199;-55
2021/09/29 02:20:17;;;;;;;8.70;4.70;;;;;;;7.55;84.35;100937.48;116698;1199;137975;-56
2021/09/29 02:22:45;;;;;;;13.50;5.20;;;;;;;7.52;84.46;100936.13;116906;1196;23100;-56
2021/09/29 02:25:13;;;;;;;12.00;5.70;;;;;;;7.51;84.57;100941.52;116866;1198;137826;-56
2021/09/29 02:27:41;;;;;;;16.30;6.30;;;;;;;7.51;84.80;100941.68;116833;1199;22327;-56
2021/09/29 02:30:10;;;;;;;16.00;7.40;;;;;;;7.51;84.88;100941.60;116744;1199;138196;-56
2021/09/29 02:32:39;;;;;;;13.90;6.50;;;;;;;7.51;85.02;100940.42;116936;1199;22320;-56
2021/09/29 02:35:09;;;;;;;17.20;7.00;;;;;;;7.49;85.06;100947.39;116854;1198;22348;-56
2021/09/29 02:37:40;;;;;;;16.40;7.10;;;;;;;7.51;85.32;100944.23;116779;1199;138775;-57
2021/09/29 02:40:08;;;;;;;19.50;7.80;;;;;;;7.51;85.40;100947.65;116995;1199;22305;-56
2021/09/29 02:42:40;;;;;;;16.80;6.90;;;;;;;7.50;85.45;100947.60;116815;1193;137905;-56
2021/09/29 02:45:09;;;;;;;12.90;6.60;;;;;;;7.50;85.31;100947.19;116898;1199;22133;-56
2021/09/29 02:47:37;;;;;;;14.10;8.10;;;;;;;7.52;85.38;100949.52;116889;1199;22216;-56
2021/09/29 02:50:05;;;;;;;16.40;6.00;;;;;;;7.53;85.23;100952.91;116757;1199;138067;-56
2021/09/29 02:52:34;;;;;;;17.70;6.40;;;;;;;7.54;85.30;100956.92;116895;1199;22412;-56
2021/09/29 02:55:02;;;;;;;17.00;5.70;;;;;;;7.53;85.31;100964.00;116817;1199;139189;-55
2021/09/29 02:57:35;;;;;;;11.40;5.50;;;;;;;7.51;85.23;100964.91;116890;1192;22235;-55
2021/09/29 03:00:04;;;;;;;13.30;5.60;;;;;;;7.51;85.23;100972.93;116770;1198;138606;-55
2021/09/29 03:02:32;;;;;;;14.10;5.80;;;;;;;7.52;85.19;100976.64;116813;1193;22669;-55
2021/09/29 03:05:02;;;;;;;17.90;5.00;;;;;;;7.51;85.06;100975.27;116887;1199;23160;-55
2021/09/29 03:07:30;;;;;;;9.90;4.50;;;;;;;7.50;85.12;100975.95;116734;1199;138266;-55
2021/09/29 03:09:58;;;;;;;10.40;4.30;;;;;;;7.49;84.93;100975.70;116927;1199;22387;-55
2021/09/29 03:12:27;;;;;;;7.50;3.70;;;;;;;7.46;84.75;100971.46;116773;1199;139505;-55
2021/09/29 03:14:55;;;;;;;9.10;4.40;;;;;;;7.47;84.85;100970.55;116934;1199;22328;-55
2021/09/29 03:17:23;;;;;;;4.60;3.00;;;;;;;7.48;84.77;100969.73;116875;1193;22247;-55
2021/09/29 03:19:51;;;;;;;6.10;3.40;;;;;;;7.48;84.71;100965.80;116750;1199;138752;-56
2021/09/29 03:22:19;;;;;;;5.50;2.90;;;;;;;7.46;84.62;100967.76;116865;1199;22806;-56
2021/09/29 03:24:47;;;;;;;6.10;3.00;;;;;;;7.44;84.65;100972.88;116811;1198;138715;-56
2021/09/29 03:27:15;;;;;;;3.90;2.50;;;;;;;7.41;84.48;100980.33;116810;1200;22234;-54
2021/09/29 03:29:44;;;;;;;4.10;2.70;;;;;;;7.36;84.42;100980.76;116877;1199;22358;-55
2021/09/29 03:32:12;;;;;;;6.50;3.40;;;;;;;7.33;84.43;100984.89;116865;1194;137422;-54
2021/09/29 03:34:40;;;;;;;5.70;3.00;;;;;;;7.31;84.56;100983.50;116814;1199;23394;-55
2021/09/29 03:37:08;;;;;;;9.50;3.10;;;;;;;7.31;84.55;100979.33;116759;1199;138203;-55
2021/09/29 03:39:36;;;;;;;5.50;3.70;;;;;;;7.30;84.54;100982.86;116926;1194;22302;-55
2021/09/29 03:42:04;;;;;;;6.50;2.80;;;;;;;7.29;84.52;100983.27;116749;1199;138861;-54
2021/09/29 03:44:33;;;;;;;5.20;3.10;;;;;;;7.27;84.52;100981.71;116912;1199;22366;-54
2021/09/29 03:47:01;;;;;;;4.10;2.60;;;;;;;7.23;84.27;100980.89;116883;1199;22246;-55
2021/09/29 03:49:29;;;;;;;5.70;2.80;;;;;;;7.22;84.38;100984.69;116748;1199;142069;-55
2021/09/29 03:52:00;;;;;;;4.80;2.90;;;;;;;7.20;84.49;100987.66;116899;1199;23204;-56
2021/09/29 03:54:29;;;;;;;5.90;2.70;;;;;;;7.18;84.43;100987.27;116748;1199;137863;-56
2021/09/29 03:56:59;;;;;;;6.70;3.20;;;;;;;7.18;84.55;100988.38;116900;1193;22331;-57
2021/09/29 03:59:29;;;;;;;3.60;3.30;;;;;;;7.15;84.29;100989.95;116858;1193;23928;-57
2021/09/29 04:01:57;;;;;;;4.10;2.80;;;;;;;7.13;84.42;100994.77;116760;1199;137917;-55
2021/09/29 04:04:26;;;;;;;5.10;2.80;;;;;;;7.12;84.48;100991.63;116829;1199;22329;-55
2021/09/29 04:06:55;;;;;;;7.80;3.00;;;;;;;7.09;84.61;100992.33;116780;1199;138769;-55
2021/09/29 04:09:23;;;;;;;3.80;2.80;;;;;;;7.08;84.59;100992.44;116860;1199;23121;-55
2021/09/29 04:11:52;;;;;;;6.70;3.00;;;;;;;7.09;84.65;100996.66;116840;1199;22218;-55
2021/09/29 04:14:20;;;;;;;3.60;2.90;;;;;;;7.08;84.77;101001.83;116792;1199;137531;-55
2021/09/29 04:16:48;;;;;;;4.50;3.70;;;;;;;7.08;84.74;100999.16;116901;1199;23304;-55
2021/09/29 04:19:18;;;;;;;6.40;3.60;;;;;;;7.08;84.74;101004.36;116675;1200;138681;-55
2021/09/29 04:21:47;;;;;;;4.30;2.90;;;;;;;7.09;84.72;101006.28;116862;1199;22465;-55
2021/09/29 04:24:15;;;;;;;7.70;3.00;;;;;;;7.09;84.80;101009.91;116713;1199;137758;-54
2021/09/29 04:26:43;;;;;;;4.80;3.20;;;;;;;7.09;84.82;101011.70;116897;1199;22277;-55
2021/09/29 04:29:11;;;;;;;6.30;5.00;;;;;;;7.09;84.92;101014.88;116882;1199;22265;-55
2021/09/29 04:31:39;;;;;;;6.40;3.70;;;;;;;7.09;84.82;101016.96;116721;1199;137659;-55
2021/09/29 04:34:07;;;;;;;5.10;3.00;;;;;;;7.07;84.89;101016.50;116759;1200;23817;-55
2021/09/29 04:36:35;;;;;;;4.00;3.00;;;;;;;7.03;84.94;101018.11;116679;1200;137999;-54
2021/09/29 04:39:04;;;;;;;4.50;3.60;;;;;;;7.00;84.68;101017.88;116781;1199;22350;-55
2021/09/29 04:41:32;;;;;;;4.40;3.50;;;;;;;6.99;85.05;101024.38;116833;1199;23127;-55
2021/09/29 04:44:00;;;;;;;5.90;3.40;;;;;;;6.98;84.91;101025.65;116642;1199;138596;-55
2021/09/29 04:46:28;;;;;;;6.50;3.90;;;;;;;6.97;85.11;101028.44;116572;1200;23007;-55
2021/09/29 04:48:56;;;;;;;10.00;3.70;;;;;;;6.96;85.07;101032.17;116712;1199;138812;-55
2021/09/29 04:51:24;;;;;;;4.90;3.80;;;;;;;6.97;84.95;101032.02;116855;1199;23177;-55
2021/09/29 04:53:52;;;;;;;5.40;3.70;;;;;;;6.99;85.09;101030.33;116751;1199;22252;-55
2021/09/29 04:56:20;;;;;;;4.70;3.10;;;;;;;7.00;85.07;101031.80;116687;1199;137811;-55
2021/09/29 04:58:48;;;;;;;5.70;3.80;;;;;;;7.00;85.06;101036.01;116735;1193;22325;-55
2021/09/29 05:01:23;;;;;;;6.90;4.20;;;;;;;7.00;84.98;101038.10;116745;1199;138550;-55
2021/09/29 05:03:52;;;;;;;4.80;3.80;;;;;;;7.03;85.02;101041.08;116746;1199;22263;-55
2021/09/29 05:06:20;;;;;;;4.90;3.70;;;;;;;7.06;84.92;101045.18;116809;1199;138082;-55
2021/09/29 05:08:49;;;;;;;5.10;4.50;;;;;;;7.08;84.95;101046.73;116886;1199;23254;-56
2021/09/29 05:11:28;;;;;;;5.90;4.60;;;;;;;7.10;84.71;101049.12;116939;1199;22329;-55
2021/09/29 05:13:57;;;;;;;6.90;4.20;;;;;;;7.12;84.53;101048.92;116824;1198;138415;-56
2021/09/29 05:16:24;;;;;;;6.80;3.80;;;;;;;7.14;84.71;101049.78;116740;1200;22427;-56
2021/09/29 05:18:53;;;;;;;9.30;5.00;;;;;;;7.15;84.55;101049.25;116731;1199;138778;-56
2021/09/29 05:21:21;;;;;;;8.60;4.50;;;;;;;7.12;84.13;101052.31;116916;1199;22309;-56
2021/09/29 05:23:49;;;;;;;5.70;4.30;;;;;;;7.10;84.39;101054.04;116865;1199;23201;-56
2021/09/29 05:26:18;;;;;;;6.20;4.00;;;;;;;7.11;84.33;101060.02;116796;1199;138544;-57
2021/09/29 05:28:48;;;;;;;8.10;4.50;;;;;;;7.14;84.26;101061.45;116943;1198;22295;-56
2021/09/29 05:31:17;;;;;;;5.40;4.40;;;;;;;7.17;84.24;101060.61;116575;1199;137856;-57
2021/09/29 05:33:45;;;;;;;11.30;4.90;;;;;;;7.18;83.90;101062.41;116891;1198;23409;-56
2021/09/29 05:36:13;;;;;;;9.80;4.70;;;;;;;7.19;84.03;101069.30;116822;1199;138236;-56
2021/09/29 05:38:42;;;;;;;4.30;3.90;;;;;;;7.21;83.73;101068.14;116849;1193;22786;-56
2021/09/29 05:41:11;;;;;;;5.90;3.90;;;;;;;7.24;83.95;101063.98;116887;1193;22351;-55
2021/09/29 05:43:40;;;;;;;9.20;4.00;;;;;;;7.28;83.26;101065.77;116786;1199;138203;-56
2021/09/29 05:46:08;;;;;;;9.90;4.60;;;;;;;7.31;83.29;101065.61;116866;1199;23012;-56
2021/09/29 05:48:37;;;;;;;7.80;4.60;;;;;;;7.35;83.10;101065.97;116739;1199;138446;-56
2021/09/29 05:51:05;;;;;;;12.60;4.50;;;;;;;7.39;83.18;101062.36;116823;1197;22317;-56
2021/09/29 05:53:34;;;;;;;10.20;4.30;;;;;;;7.45;82.98;101064.41;116710;1199;23052;-57
2021/09/29 05:56:03;;;;;;;5.80;4.20;;;;;;;7.52;82.73;101061.27;116510;1199;139003;-56
2021/09/29 05:58:31;;;;;;;7.90;4.00;;;;;;;7.58;82.39;101065.19;116664;1200;22274;-56
2021/09/29 06:00:59;;;;;;;5.90;3.70;;;;;;;7.62;82.27;101066.38;116657;1199;137724;-56
2021/09/29 06:03:27;;;;;;;7.20;4.30;;;;;;;7.68;82.38;101063.90;116790;1200;23132;-55
2021/09/29 06:05:58;;;;;;;5.60;4.20;;;;;;;7.80;82.18;101069.77;116833;1197;22323;-57
2021/09/29 06:08:26;;;;;;;5.90;4.50;;;;;;;7.89;81.95;101073.45;116788;1199;137784;-57
2021/09/29 06:10:57;;;;;;;5.20;4.10;;;;;;;7.96;81.34;101069.86;116867;1199;22298;-56
2021/09/29 06:13:25;;;;;;;7.80;4.30;;;;;;;7.99;80.95;101068.20;116717;1199;137678;-56
2021/09/29 06:15:54;;;;;;;5.30;4.70;;;;;;;8.00;80.32;101067.71;116903;1199;22318;-56
2021/09/29 06:18:22;;;;;;;7.00;4.30;;;;;;;8.02;80.59;101068.35;116686;1199;138196;-56
2021/09/29 06:20:51;;;;;;;9.30;4.50;;;;;;;8.08;80.75;101068.48;116686;1199;23878;-56
2021/09/29 06:23:19;;;;;;;15.50;4.70;;;;;;;8.16;80.32;101067.81;116963;1199;22297;-56
2021/09/29 06:25:48;;;;;;;8.70;5.00;;;;;;;8.24;79.94;101065.91;116712;1199;137956;-57
2021/09/29 06:28:16;;;;;;;7.30;5.10;;;;;;;8.33;79.80;101067.20;116765;1199;22345;-57
2021/09/29 06:30:44;;;;;;;15.30;5.90;;;;;;;8.44;79.60;101070.11;116512;1200;137887;-57
2021/09/29 06:33:14;;;;;;;12.60;5.00;;;;;;;8.51;79.14;101065.86;116875;1199;23024;-57
2021/09/29 06:35:41;;;;;;;8.30;4.90;;;;;;;8.62;78.92;101067.73;116893;1199;22337;-58
2021/09/29 06:38:10;;;;;;;11.80;4.90;;;;;;;8.71;78.55;101071.86;116780;1199;138704;-58
2021/09/29 06:40:38;;;;;;;8.10;5.00;;;;;;;8.79;78.03;101073.14;116865;1199;22989;-58
2021/09/29 06:43:07;;;;;;;9.90;5.80;;;;;;;8.83;77.66;101074.00;116672;1200;138183;-58
2021/09/29 06:45:35;;;;;;;12.40;5.20;;;;;;;8.85;76.99;101073.66;116861;1199;22660;-58
2021/09/29 06:48:04;;;;;;;11.30;5.80;;;;;;;8.83;76.72;101080.15;116874;1199;22316;-57
2021/09/29 06:50:34;;;;;;;12.90;6.60;;;;;;;8.81;76.36;101077.02;116587;1194;138292;-58
2021/09/29 06:53:03;;;;;;;6.90;5.00;;;;;;;8.83;76.34;101078.92;116720;1199;22251;-57
2021/09/29 06:55:31;;;;;;;13.20;5.70;;;;;;;8.88;76.50;101079.91;116513;1200;138798;-57
2021/09/29 06:57:59;;;;;;;11.90;5.40;;;;;;;8.93;76.18;101083.18;116757;1199;22264;-56
2021/09/29 07:00:27;;;;;;;8.60;5.20;;;;;;;8.97;75.57;101084.96;116724;1199;141528;-56
2021/09/29 07:02:55;;;;;;;11.60;6.50;;;;;;;9.02;75.61;101083.92;116652;1200;22459;-56
2021/09/29 07:05:24;;;;;;;6.70;5.10;;;;;;;9.09;75.78;101086.94;116713;1200;24717;-56
2021/09/29 07:07:56;;;;;;;7.70;5.30;;;;;;;9.15;75.77;101085.42;116774;1199;139073;-56
2021/09/29 07:10:44;;;;;;;6.90;5.00;;;;;;;9.22;75.58;101089.69;116829;1199;23140;-56
2021/09/29 07:13:13;;;;;;;8.90;4.90;;;;;;;9.27;74.90;101091.88;116580;1200;137664;-56
2021/09/29 07:15:47;;;;;;;9.30;5.30;;;;;;;9.28;74.58;101089.29;117026;1198;22228;-56
2021/09/29 07:18:17;;;;;;;5.80;4.80;;;;;;;9.24;74.69;101088.84;116807;1199;138207;-58
2021/09/29 07:20:50;;;;;;;7.70;5.20;;;;;;;9.22;74.79;101092.36;116899;1199;22317;-56
2021/09/29 07:23:18;;;;;;;13.30;4.70;;;;;;;9.24;74.52;101092.64;116965;1199;23075;-56
2021/09/29 07:25:46;;;;;;;8.00;5.00;;;;;;;9.26;74.20;101092.38;116804;1199;137856;-57
2021/09/29 07:28:14;;;;;;;5.90;4.50;;;;;;;9.29;74.33;101091.30;116637;1200;22353;-55
2021/09/29 07:30:45;;;;;;;6.40;4.40;;;;;;;9.32;73.64;101092.48;116836;1199;137678;-55
2021/09/29 07:33:14;;;;;;;6.00;4.40;;;;;;;9.37;73.95;101095.61;116941;1199;23020;-55
2021/09/29 07:35:43;;;;;;;9.20;4.60;;;;;;;9.47;73.61;101096.93;116970;1199;23449;-55
2021/09/29 07:38:11;;;;;;;5.40;4.40;;;;;;;9.55;72.69;101093.80;116868;1198;138842;-55
2021/09/29 07:40:41;;;;;;;9.30;4.70;;;;;;;9.55;71.92;101090.08;117003;1199;22257;-55
2021/09/29 07:43:09;;;;;;;6.80;4.60;;;;;;;9.55;72.13;101091.20;116809;1199;137974;-55
2021/09/29 07:45:38;;;;;;;6.20;4.30;;;;;;;9.57;72.29;101088.41;116166;1197;22819;-55
2021/09/29 07:48:06;;;;;;;7.30;4.70;;;;;;;9.65;72.71;101094.26;116903;1193;23448;-55
2021/09/29 07:50:34;;;;;;;9.50;4.40;;;;;;;9.72;72.96;101088.53;116633;1199;138460;-55
2021/09/29 07:53:02;;;;;;;6.80;4.30;;;;;;;9.76;72.88;101092.55;116692;1200;22294;-55
2021/09/29 07:55:35;;;;;;;5.70;4.10;;;;;;;9.77;72.35;101096.70;116596;1200;138343;-55
2021/09/29 07:58:03;;;;;;;8.40;4.20;;;;;;;9.76;71.98;101096.45;116989;1199;23025;-56
2021/09/29 08:00:31;;;;;;;8.30;4.10;;;;;;;9.77;71.88;101097.73;116911;1199;138111;-54
2021/09/29 08:03:00;;;;;;;8.90;4.40;;;;;;;9.83;71.88;101098.04;116949;1193;22308;-54
2021/09/29 08:05:30;;;;;;;7.70;3.80;;;;;;;9.90;71.75;101097.15;116985;1199;23662;-54
2021/09/29 08:07:58;;;;;;;5.10;3.90;;;;;;;9.99;71.18;101094.25;116893;1199;137898;-54
2021/09/29 08:10:38;;;;;;;33.10;7.70;;;;;;;10.10;70.39;101094.72;116920;1199;22327;-54
2021/09/29 08:13:07;;;;;;;8.00;2.80;;;;;;;10.21;69.48;101096.11;116867;1199;137833;-54
2021/09/29 08:15:36;;;;;;;7.20;2.70;;;;;;;10.32;68.37;101098.41;116952;1199;22367;-54
2021/09/29 08:18:04;;;;;;;6.90;2.50;;;;;;;10.43;67.08;101095.20;116899;1199;22193;-54
2021/09/29 08:20:34;;;;;;;4.10;2.20;;;;;;;10.50;65.74;101097.39;116792;1199;137980;-55
2021/09/29 08:23:07;;;;;;;5.30;2.30;;;;;;;10.55;64.39;101095.48;116959;1199;22123;-55
2021/09/29 08:33:19;;;;;;;2.60;2.20;;;;;;;10.50;62.53;101097.44;116957;1199;22935;-55
2021/09/29 08:36:05;;;;;;;2.50;2.20;;;;;;;10.46;62.12;101095.27;116921;1199;23252;-54
2021/09/29 08:38:41;;;;;;;5.70;1.90;;;;;;;10.42;62.22;101094.98;116882;1192;137140;-55
2021/09/29 08:43:54;;;;;;;4.00;2.20;;;;;;;10.33;61.33;101091.58;116641;1200;137186;-55
2021/09/29 08:49:28;;;;;;;2.20;1.90;;;;;;;10.31;61.12;101087.85;116710;1199;137345;-55
2021/09/29 09:16:58;;;;;;;5.40;2.00;;;;;;;10.69;60.63;101082.65;116937;1199;22304;-56
2021/09/29 09:19:28;;;;;;;6.70;2.80;;;;;;;10.68;59.53;101086.70;116828;1199;137065;-56
2021/09/29 09:21:59;;;;;;;7.50;2.70;;;;;;;10.63;59.63;101084.30;116908;1199;22371;-56
2021/09/29 09:24:32;;;;;;;8.10;3.30;;;;;;;10.57;59.87;101088.90;116762;1199;137940;-56
2021/09/29 09:27:02;;;;;;;3.90;2.80;;;;;;;10.56;60.35;101087.32;116834;1199;22184;-56
2021/09/29 09:29:31;;;;;;;6.90;3.10;;;;;;;10.55;60.03;101085.77;116832;1198;23449;-56
2021/09/29 09:32:06;;;;;;;5.00;2.70;;;;;;;10.55;60.22;101083.71;116810;1198;137200;-56
2021/09/29 09:34:35;;;;;;;7.00;3.10;;;;;;;10.57;60.12;101077.88;116952;1198;22316;-56
2021/09/29 09:37:13;;;;;;;9.20;3.90;;;;;;;10.59;59.96;101087.05;116773;1199;139419;-56
2021/09/29 09:39:42;;;;;;;7.50;3.30;;;;;;;10.57;60.38;101086.18;116843;1197;22402;-56
2021/09/29 09:42:10;;;;;;;5.90;2.80;;;;;;;10.56;60.47;101092.48;116886;1199;22236;-56
2021/09/29 09:44:40;;;;;;;4.50;2.60;;;;;;;10.55;60.47;101090.51;116804;1199;137022;-56
2021/09/29 09:47:12;;;;;;;8.20;3.80;;;;;;;10.59;59.66;101086.75;116880;1199;22380;-56
2021/09/29 09:49:50;;;;;;;4.10;2.30;;;;;;;10.67;59.25;101085.70;116837;1199;137486;-56
2021/09/29 09:52:34;;;;;;;3.20;2.40;;;;;;;10.73;59.80;101086.11;116892;1199;23591;-56
2021/09/29 09:55:07;;;;;;;5.50;2.40;;;;;;;10.79;59.08;101086.38;116728;1198;137512;-57
2021/09/29 09:57:43;;;;;;;11.50;2.70;;;;;;;10.78;58.98;101086.30;116945;1199;23154;-57
2021/09/29 10:00:12;;;;;;;3.60;2.40;;;;;;;10.76;58.94;101090.70;116930;1193;22347;-56
2021/09/29 10:02:45;;;;;;;3.20;2.60;;;;;;;10.74;59.46;101088.84;116747;1198;136994;-57
2021/09/29 10:05:15;;;;;;;10.70;3.30;;;;;;;10.75;59.90;101086.85;116987;1199;23036;-57
2021/09/29 10:07:45;;;;;;;4.90;2.80;;;;;;;10.77;60.03;101094.70;116827;1199;137354;-57
2021/09/29 10:10:23;;;;;;;7.60;2.30;;;;;;;10.76;58.87;101088.11;116932;1200;23096;-57
2021/09/29 10:27:22;;;;;;;7.00;2.70;;;;;;;10.75;60.16;101089.63;116495;1202;22253;-55
2021/09/29 10:29:58;;;;;;;7.70;3.60;;;;;;;10.76;59.59;101086.98;116189;1202;22317;-55
2021/09/29 10:32:31;;;;;;;9.10;3.20;;;;;;;10.74;59.84;101088.38;116350;1194;136979;-54
2021/09/29 10:44:31;;;;;;;4.90;3.10;;;;;;;10.66;60.04;101083.48;110733;1213;544856;-55
2021/09/29 10:50:09;;;;;;;5.30;3.40;;;;;;;10.67;59.84;101077.58;116337;1201;136409;-56
2021/09/29 11:28:53;;;;;;;10.60;5.20;;;;;;;10.81;61.18;101058.25;116200;1204;22238;-57
2021/09/29 11:31:28;;;;;;;8.60;4.50;;;;;;;10.75;61.63;101060.60;116066;1204;137183;-56
2021/09/29 11:34:05;;;;;;;7.80;4.90;;;;;;;10.73;61.37;101063.01;116160;1205;23203;-54
2021/09/29 12:10:06;;;;;;;6.50;4.70;;;;;;;10.70;63.96;101050.90;112266;1202;25337;-54
2021/09/29 12:12:37;;;;;;;10.00;5.30;;;;;;;10.75;63.94;101052.39;116575;1201;22255;-55
2021/09/29 12:15:06;;;;;;;13.60;5.80;;;;;;;10.80;63.92;101052.44;116471;1201;137571;-55
2021/09/29 12:17:54;;;;;;;8.80;6.20;;;;;;;10.83;63.71;101056.58;116586;1201;22270;-55
2021/09/29 12:22:54;;;;;;;22.70;11.10;;;;;;;10.85;63.51;101057.67;116440;1202;23256;-55
2021/09/29 12:25:44;;;;;;;16.40;6.80;;;;;;;10.87;63.22;101056.42;116267;1202;138589;-54
2021/09/29 12:30:45;;;;;;;12.90;6.20;;;;;;;10.85;63.65;101054.69;116281;1202;23387;-56
2021/09/29 12:33:32;;;;;;;14.60;6.00;;;;;;;10.86;63.38;101058.08;116159;1203;137844;-55
2021/09/29 12:36:28;;;;;;;10.10;5.30;;;;;;;10.86;63.28;101055.81;116296;1190;22463;-55
2021/09/29 12:38:57;;;;;;;7.20;5.50;;;;;;;10.85;62.73;101056.52;116173;1202;138096;-55
2021/09/29 12:41:28;;;;;;;10.10;6.10;;;;;;;10.84;63.29;101052.14;116294;1203;22332;-56
2021/09/29 12:44:03;;;;;;;9.50;5.30;;;;;;;10.85;63.23;101050.70;116334;1200;138327;-56
2021/09/29 12:46:33;;;;;;;7.90;5.30;;;;;;;10.84;63.19;101053.72;116518;1201;23165;-55
2021/09/29 12:49:09;;;;;;;13.00;6.20;;;;;;;10.83;62.91;101049.58;116349;1201;137046;-56
2021/09/29 12:51:51;;;;;;;12.70;6.90;;;;;;;10.79;63.46;101054.71;116498;1201;22240;-55
2021/09/29 12:54:22;;;;;;;16.60;6.90;;;;;;;10.74;63.43;101054.27;116528;1202;22240;-55
2021/09/29 12:56:50;;;;;;;16.10;6.10;;;;;;;10.71;63.60;101057.10;116322;1202;137124;-55
2021/09/29 12:59:18;;;;;;;11.20;7.00;;;;;;;10.69;63.77;101057.88;116458;1202;23628;-55
2021/09/29 13:01:47;;;;;;;11.60;5.90;;;;;;;10.65;63.98;101053.89;116184;1203;138347;-56
2021/09/29 13:04:15;;;;;;;12.70;6.30;;;;;;;10.62;64.09;101056.55;116513;1202;23059;-55
2021/09/29 13:06:44;;;;;;;12.20;7.10;;;;;;;10.61;64.23;101054.75;116478;1202;22413;-55
2021/09/29 13:09:12;;;;;;;11.60;6.10;;;;;;;10.60;64.22;101050.95;116182;1203;137844;-55
2021/09/29 13:11:40;;;;;;;11.00;6.50;;;;;;;10.59;64.24;101051.95;116460;1202;22331;-55
2021/09/29 13:14:10;;;;;;;17.90;7.00;;;;;;;10.58;64.79;101050.79;116390;1202;137246;-55
2021/09/29 13:16:39;;;;;;;12.60;6.00;;;;;;;10.62;64.71;101051.52;116463;1197;22262;-55
2021/09/29 13:19:24;;;;;;;12.70;6.00;;;;;;;10.64;64.61;101049.45;116303;1201;137196;-55
2021/09/29 13:22:01;;;;;;;15.50;6.90;;;;;;;10.61;63.92;101054.80;116483;1202;23171;-56
2021/09/29 13:37:41;;;;;;;10.80;6.50;;;;;;;10.44;65.06;101043.09;116293;1197;137720;-56
2021/09/29 13:40:09;;;;;;;23.20;8.50;;;;;;;10.42;64.89;101043.09;116672;1201;22362;-55
2021/09/29 13:42:37;;;;;;;11.50;7.10;;;;;;;10.41;65.10;101042.73;116647;1201;22326;-55
2021/09/29 13:45:07;;;;;;;13.70;6.40;;;;;;;10.41;65.28;101042.77;116484;1197;137179;-55
2021/09/29 13:47:35;;;;;;;13.60;7.50;;;;;;;10.41;65.09;101040.96;116690;1195;22381;-56
2021/09/29 13:50:06;;;;;;;15.30;7.20;;;;;;;10.40;64.92;101041.85;116599;1193;137507;-56
2021/09/29 13:52:34;;;;;;;20.50;7.00;;;;;;;10.37;65.01;101044.86;116576;1193;23024;-56
2021/09/29 13:55:06;;;;;;;13.60;7.50;;;;;;;10.35;65.11;101042.95;116810;1199;137325;-57
2021/09/29 14:00:17;;;;;;;12.10;7.30;;;;;;;10.34;65.26;101046.22;116939;1198;22331;-56
2021/09/29 14:03:04;;;;;;;12.40;7.40;;;;;;;10.31;65.26;101048.04;116640;1199;138922;-57
2021/09/29 14:30:34;;;;;;;11.70;6.80;;;;;;;10.27;65.63;101052.95;116991;1199;22345;-55
2021/09/29 14:33:04;;;;;;;11.60;6.50;;;;;;;10.24;65.81;101056.30;116535;1200;137700;-55
2021/09/29 14:35:32;;;;;;;21.50;7.30;;;;;;;10.21;65.70;101061.09;116677;1200;22955;-55